CheckWX is a tool to help pilots better visualize weather data.  It is not intended as a substitute for an official pre-flight weather briefing.

12:01:39 UTC

EGGW METAR
London Luton Airport
London, United Kingdom
Current

12 mins ago

EGGW 251150Z AUTO 35012KT 320V020 9999 SCT038 11/01 Q1032
Observed
Mar-25 @ 11:50 UTC
Wind
  • 350° at 12 KTS
Visibility
10,000+ meters
Flight Rules
VFR
Cloud Levels
  • Scattered at 3,800' AGL
Temperature
11°C / 52°F
Dewpoint
C / 34°F
Humidity
50%
Altimeter
30.47" Hg
Pressure
1031.91 hPa
Previous

42 mins ago

EGGW 251120Z AUTO 34013KT 300V010 9999 BKN034 BKN040 09/01 Q1032
Observed
Mar-25 @ 11:20 UTC
Wind
  • 340° at 13 KTS
Visibility
10,000+ meters
Flight Rules
VFR
Cloud Levels
  • Broken at 3,400' AGL
  • Broken at 4,000' AGL
Temperature
C / 48°F
Dewpoint
C / 34°F
Humidity
58%
Altimeter
30.47" Hg
Pressure
1031.91 hPa
Previous

1 hour ago

EGGW 251050Z AUTO 36014KT 9999 BKN034 10/01 Q1032
Observed
Mar-25 @ 10:50 UTC
Wind
  • 360° at 14 KTS
Visibility
10,000+ meters
Flight Rules
VFR
Cloud Levels
  • Broken at 3,400' AGL
Temperature
10°C / 50°F
Dewpoint
C / 34°F
Humidity
54%
Altimeter
30.47" Hg
Pressure
1031.91 hPa